Time;durP1;ratioP1;P1;durP2;ratioP2;P2;SDS_P1;SDS_P2;PMS_P1;PMS_P2;Temp;Humidity;BMP_temperature;BMP_pressure;BME280_temperature;BME280_humidity;BME280_pressure;Samples;Min_cycle;Max_cycle;Signal;HPM_P1;HPM_P2
2023/01/23 00:00:56;;;;;;;31.93;14.67;;;3.20;99.90;;;;;;5053569;28;20036;-78
2023/01/23 00:03:22;;;;;;;25.17;13.83;;;3.20;99.90;;;;;;5054006;28;20083;-78
2023/01/23 00:05:58;;;;;;;24.27;14.17;;;3.20;99.90;;;;;;5053255;28;20055;-78
2023/01/23 00:08:24;;;;;;;27.90;14.20;;;3.20;99.90;;;;;;5054223;28;20095;-78
2023/01/23 00:10:49;;;;;;;33.80;14.30;;;3.20;99.90;;;;;;5053576;28;20029;-78
2023/01/23 00:13:16;;;;;;;30.27;15.40;;;3.20;99.90;;;;;;5037143;28;20123;-77
2023/01/23 00:15:42;;;;;;;24.27;13.23;;;3.20;99.90;;;;;;5054045;28;20025;-78
2023/01/23 00:18:07;;;;;;;26.23;14.53;;;3.20;99.90;;;;;;5036959;28;20036;-78
2023/01/23 00:20:35;;;;;;;25.83;14.60;;;3.20;99.90;;;;;;5054003;28;20033;-78
2023/01/23 00:23:01;;;;;;;30.43;14.43;;;3.30;99.90;;;;;;5037491;28;20072;-77
2023/01/23 00:25:26;;;;;;;30.03;14.37;;;3.20;99.90;;;;;;5053842;28;20475;-78
2023/01/23 00:27:52;;;;;;;35.60;17.07;;;3.20;99.90;;;;;;5053090;28;20033;-77
2023/01/23 00:30:18;;;;;;;23.33;13.93;;;3.30;99.90;;;;;;5053670;28;20060;-78
2023/01/23 00:32:43;;;;;;;27.67;13.67;;;3.20;99.90;;;;;;5036966;28;20119;-78
2023/01/23 00:35:09;;;;;;;28.87;14.90;;;3.30;99.90;;;;;;5053491;28;20033;-77
2023/01/23 00:37:35;;;;;;;29.37;14.53;;;3.20;99.90;;;;;;5053606;28;20590;-79
2023/01/23 00:40:00;;;;;;;31.80;15.00;;;3.20;99.90;;;;;;5037204;28;20366;-78
2023/01/23 00:42:26;;;;;;;30.03;15.80;;;3.20;99.90;;;;;;5051645;28;20485;-78
2023/01/23 00:44:52;;;;;;;25.50;14.10;;;3.20;99.90;;;;;;5053298;28;20088;-77
2023/01/23 00:47:17;;;;;;;34.23;15.33;;;3.20;99.90;;;;;;5053299;28;20041;-78
2023/01/23 00:49:44;;;;;;;28.50;14.43;;;3.20;99.90;;;;;;5053071;28;20047;-79
2023/01/23 00:52:09;;;;;;;30.73;15.83;;;3.20;99.90;;;;;;5053507;28;20116;-78
2023/01/23 00:54:37;;;;;;;26.70;15.47;;;3.20;99.90;;;;;;5052874;28;20119;-78
2023/01/23 00:57:02;;;;;;;27.93;14.53;;;3.20;99.90;;;;;;5052870;28;20040;-78
2023/01/23 00:59:28;;;;;;;28.67;14.67;;;3.20;99.90;;;;;;5053537;28;20044;-78
2023/01/23 01:01:54;;;;;;;29.93;14.93;;;3.20;99.90;;;;;;5054269;28;20079;-78
2023/01/23 01:04:19;;;;;;;29.17;14.43;;;3.20;99.90;;;;;;5053057;28;20029;-78
2023/01/23 01:06:45;;;;;;;28.27;14.47;;;3.20;99.90;;;;;;5035979;28;20029;-77
2023/01/23 01:09:11;;;;;;;29.63;14.70;;;3.20;99.90;;;;;;5054211;28;20021;-78
2023/01/23 01:11:37;;;;;;;28.27;14.37;;;3.20;99.90;;;;;;5034428;28;20029;-77
2023/01/23 01:14:03;;;;;;;25.60;15.03;;;3.30;99.90;;;;;;5027529;28;20056;-78
2023/01/23 01:16:28;;;;;;;31.87;15.47;;;3.30;99.90;;;;;;5032003;28;20083;-78
2023/01/23 01:18:54;;;;;;;34.40;16.60;;;3.30;99.90;;;;;;5016652;28;20036;-77
2023/01/23 01:21:20;;;;;;;30.83;16.00;;;3.10;99.90;;;;;;5032965;28;20037;-77
2023/01/23 01:23:46;;;;;;;31.37;16.40;;;3.30;99.90;;;;;;5032756;28;20061;-78
2023/01/23 01:26:12;;;;;;;31.03;15.20;;;3.30;99.90;;;;;;5016606;28;20480;-79
2023/01/23 01:28:39;;;;;;;32.20;16.87;;;3.30;99.90;;;;;;5032496;28;20064;-78
2023/01/23 01:31:11;;;;;;;29.80;16.43;;;3.30;99.90;;;;;;5032404;28;20026;-78
2023/01/23 01:33:38;;;;;;;32.63;15.17;;;3.30;99.90;;;;;;5032253;28;20025;-79
2023/01/23 01:36:13;;;;;;;30.67;15.80;;;3.30;99.90;;;;;;5016216;28;20462;-79
2023/01/23 01:38:38;;;;;;;;;;;3.30;99.90;;;;;;5034257;28;20359;-78
2023/01/23 01:41:06;;;;;;;31.00;15.63;;;3.30;99.90;;;;;;5032623;28;19924;-78
2023/01/23 01:43:32;;;;;;;32.47;16.37;;;3.20;99.90;;;;;;5033522;28;20120;-77
2023/01/23 01:46:09;;;;;;;31.07;16.67;;;3.30;99.90;;;;;;5031927;28;20050;-78
2023/01/23 01:48:54;;;;;;;31.07;16.37;;;3.30;99.90;;;;;;5046144;28;20562;-78
2023/01/23 01:51:23;;;;;;;;;;;3.30;99.90;;;;;;5053706;28;20032;-78
2023/01/23 01:53:58;;;;;;;31.83;16.13;;;3.30;99.90;;;;;;5051855;28;19904;-77
2023/01/23 01:56:26;;;;;;;30.30;15.67;;;3.30;99.90;;;;;;5053541;28;20039;-81
2023/01/23 01:58:53;;;;;;;32.10;15.70;;;3.30;99.90;;;;;;5050833;28;20075;-77
2023/01/23 02:01:19;;;;;;;31.33;16.60;;;3.30;99.90;;;;;;5035648;28;20436;-77
2023/01/23 02:03:45;;;;;;;35.47;16.73;;;3.30;99.90;;;;;;5035761;28;20057;-77
2023/01/23 02:06:11;;;;;;;34.43;15.33;;;3.30;99.90;;;;;;5052919;28;20516;-78
2023/01/23 02:08:57;;;;;;;41.17;17.53;;;3.30;99.90;;;;;;5021632;28;20108;-78
2023/01/23 02:11:22;;;;;;;30.13;15.97;;;3.20;99.90;;;;;;5033327;28;20025;-77
2023/01/23 02:13:48;;;;;;;33.23;16.33;;;3.30;99.90;;;;;;5015809;28;20026;-78
2023/01/23 02:16:20;;;;;;;31.57;15.47;;;3.30;99.90;;;;;;5032223;28;20037;-78
2023/01/23 02:18:48;;;;;;;33.20;16.10;;;3.30;99.90;;;;;;5033095;28;20026;-77
2023/01/23 02:21:18;;;;;;;29.23;15.30;;;3.30;99.90;;;;;;5031347;28;20443;-78
2023/01/23 02:23:50;;;;;;;36.53;17.00;;;3.40;99.90;;;;;;5032054;28;20401;-77
2023/01/23 02:26:20;;;;;;;32.53;15.97;;;3.30;99.90;;;;;;5031621;28;20519;-77
2023/01/23 02:28:50;;;;;;;27.23;15.67;;;3.20;99.90;;;;;;5031945;28;20496;-77
2023/01/23 02:31:16;;;;;;;32.83;15.53;;;3.40;99.90;;;;;;5031396;28;20075;-78
2023/01/23 02:33:53;;;;;;;32.97;16.63;;;3.40;99.90;;;;;;5032704;28;20100;-78
2023/01/23 02:36:21;;;;;;;28.23;15.20;;;3.40;99.90;;;;;;5031404;28;20052;-79
2023/01/23 02:38:54;;;;;;;36.13;16.57;;;3.40;99.90;;;;;;5033626;28;20092;-78
2023/01/23 02:41:33;;;;;;;32.97;16.10;;;3.50;99.90;;;;;;5035378;28;20049;-77
2023/01/23 02:44:03;;;;;;;28.57;15.77;;;3.50;99.90;;;;;;5052506;28;20104;-78
2023/01/23 02:46:29;;;;;;;32.33;17.40;;;3.40;99.90;;;;;;5052484;28;20397;-78
2023/01/23 02:48:55;;;;;;;33.87;16.47;;;3.50;99.90;;;;;;5034934;28;20033;-77
2023/01/23 02:51:21;;;;;;;26.77;15.67;;;3.50;99.90;;;;;;5052898;28;20381;-77
2023/01/23 02:53:47;;;;;;;28.07;16.53;;;3.40;99.90;;;;;;5051246;28;20022;-77
2023/01/23 02:56:13;;;;;;;28.83;16.53;;;3.50;99.90;;;;;;5051521;28;20025;-77
2023/01/23 03:01:24;;;;;;;30.55;15.63;;;3.50;99.90;;;;;;5049939;28;20044;-78
2023/01/23 03:03:52;;;;;;;31.13;16.70;;;3.50;99.90;;;;;;5035142;28;20155;-78
2023/01/23 03:06:19;;;;;;;35.73;17.03;;;3.50;99.90;;;;;;5034614;28;20033;-78
2023/01/23 03:08:48;;;;;;;31.70;17.47;;;3.60;99.90;;;;;;5051360;28;20031;-77
2023/01/23 03:11:16;;;;;;;35.90;17.30;;;3.50;99.90;;;;;;5052357;28;20021;-77
2023/01/23 03:13:42;;;;;;;29.87;15.67;;;3.50;99.90;;;;;;5051118;28;20021;-78
2023/01/23 03:16:08;;;;;;;33.53;18.77;;;3.50;99.90;;;;;;5034564;28;20116;-78
2023/01/23 03:18:34;;;;;;;35.03;17.50;;;3.60;99.90;;;;;;5051024;28;20033;-77
2023/01/23 03:21:05;;;;;;;32.10;17.07;;;3.50;99.90;;;;;;5050696;28;20035;-77
2023/01/23 03:23:30;;;;;;;28.97;16.50;;;3.60;99.90;;;;;;5050679;28;20044;-77
2023/01/23 03:25:59;;;;;;;31.20;18.50;;;3.60;99.90;;;;;;5034588;28;20029;-77
2023/01/23 03:31:11;;;;;;;32.93;17.93;;;3.60;99.90;;;;;;5050721;28;20084;-77
2023/01/23 03:33:38;;;;;;;35.20;17.67;;;3.50;99.90;;;;;;5052659;28;20053;-77
2023/01/23 03:36:06;;;;;;;31.57;17.13;;;3.60;99.90;;;;;;5050516;28;20084;-78
2023/01/23 03:38:32;;;;;;;32.67;16.93;;;3.50;99.90;;;;;;5035825;28;20033;-77
2023/01/23 03:43:42;;;;;;;36.63;18.48;;;3.50;99.90;;;;;;5035125;28;20052;-79
2023/01/23 03:46:08;;;;;;;37.67;17.50;;;3.50;99.90;;;;;;5018085;28;20045;-77
2023/01/23 03:48:33;;;;;;;36.20;18.03;;;3.50;99.90;;;;;;5017763;28;20033;-77
2023/01/23 03:50:59;;;;;;;35.07;17.83;;;3.50;99.90;;;;;;5034532;28;20052;-78
2023/01/23 03:53:24;;;;;;;34.77;18.57;;;3.50;99.90;;;;;;5018176;28;20030;-77
2023/01/23 03:55:50;;;;;;;32.47;19.07;;;3.50;99.90;;;;;;5034621;28;20022;-77
2023/01/23 03:58:16;;;;;;;31.67;18.30;;;3.40;99.90;;;;;;5035832;28;20139;-78
2023/01/23 04:00:41;;;;;;;33.50;17.37;;;3.50;99.90;;;;;;5035977;28;20025;-78
2023/01/23 04:03:07;;;;;;;35.03;18.67;;;3.30;99.90;;;;;;5054174;28;20047;-80
2023/01/23 04:05:33;;;;;;;36.30;18.97;;;3.40;99.90;;;;;;5053796;28;20032;-78
2023/01/23 04:07:59;;;;;;;35.53;18.23;;;3.40;99.90;;;;;;5037770;28;20021;-78
2023/01/23 04:10:26;;;;;;;34.27;18.00;;;3.50;99.90;;;;;;5053936;28;20484;-79
2023/01/23 04:12:52;;;;;;;38.47;18.27;;;3.40;99.90;;;;;;5054186;28;20025;-78
2023/01/23 04:15:18;;;;;;;31.37;17.37;;;3.50;99.90;;;;;;5037092;28;20481;-78
2023/01/23 04:17:43;;;;;;;33.83;17.57;;;3.50;99.90;;;;;;5053845;28;20029;-79
2023/01/23 04:20:11;;;;;;;30.60;15.83;;;3.50;99.90;;;;;;5037319;28;20465;-79
2023/01/23 04:22:37;;;;;;;39.10;18.90;;;3.50;99.90;;;;;;5053877;28;20120;-78
2023/01/23 04:25:03;;;;;;;37.07;20.03;;;3.50;99.90;;;;;;5052472;28;20545;-78
2023/01/23 04:27:30;;;;;;;37.67;17.43;;;3.50;99.90;;;;;;5034096;28;20068;-79
2023/01/23 04:29:56;;;;;;;34.07;18.10;;;3.50;99.90;;;;;;5054016;28;20117;-79
2023/01/23 04:32:23;;;;;;;35.17;17.83;;;3.50;99.90;;;;;;5037223;28;20076;-78
2023/01/23 04:34:48;;;;;;;34.77;16.83;;;3.40;99.90;;;;;;5036758;28;20120;-79
2023/01/23 04:37:14;;;;;;;32.97;17.90;;;3.50;99.90;;;;;;5053831;28;20112;-79
2023/01/23 04:39:40;;;;;;;29.70;18.47;;;3.50;99.90;;;;;;5036865;28;20032;-79
2023/01/23 04:42:05;;;;;;;32.33;17.43;;;3.50;99.90;;;;;;5054577;28;20075;-79
2023/01/23 04:44:31;;;;;;;34.17;17.73;;;3.50;99.90;;;;;;5049158;28;20029;-79
2023/01/23 04:46:57;;;;;;;35.20;18.60;;;3.60;99.90;;;;;;5038090;28;20390;-79
2023/01/23 04:49:23;;;;;;;37.27;18.43;;;3.40;99.90;;;;;;5017287;28;20124;-78
2023/01/23 04:51:49;;;;;;;33.57;18.37;;;3.50;99.90;;;;;;5032447;28;20120;-79
2023/01/23 04:54:16;;;;;;;33.43;17.63;;;3.60;99.90;;;;;;5023707;28;20119;-79
2023/01/23 04:56:42;;;;;;;34.03;17.83;;;3.60;99.90;;;;;;5053332;28;20021;-79
2023/01/23 04:59:08;;;;;;;31.63;17.20;;;3.60;99.90;;;;;;5054370;28;20021;-79
2023/01/23 05:01:34;;;;;;;32.30;16.23;;;3.60;99.90;;;;;;5036387;28;20373;-80
2023/01/23 05:03:59;;;;;;;31.17;16.43;;;3.50;99.90;;;;;;5037543;28;20476;-79
2023/01/23 05:06:25;;;;;;;34.17;17.00;;;3.50;99.90;;;;;;5036674;28;20055;-78
2023/01/23 05:08:51;;;;;;;29.87;16.87;;;3.50;99.90;;;;;;5032756;28;20401;-80
2023/01/23 05:11:16;;;;;;;32.70;17.37;;;3.60;99.90;;;;;;5034524;28;20029;-80
2023/01/23 05:13:42;;;;;;;37.60;17.90;;;3.60;99.90;;;;;;5018468;28;20519;-79
2023/01/23 05:16:08;;;;;;;28.03;16.77;;;3.60;99.90;;;;;;5033293;28;20033;-80
2023/01/23 05:18:33;;;;;;;30.90;16.43;;;3.50;99.90;;;;;;5033235;28;20026;-79
2023/01/23 05:20:59;;;;;;;26.13;15.80;;;3.60;99.90;;;;;;5033051;28;20025;-79
2023/01/23 05:23:25;;;;;;;27.90;15.47;;;3.60;99.90;;;;;;5032927;28;20505;-80
2023/01/23 05:25:50;;;;;;;30.40;17.67;;;3.60;99.90;;;;;;5052671;28;20040;-79
2023/01/23 05:28:16;;;;;;;33.80;18.40;;;3.70;99.90;;;;;;5052830;28;20120;-79
2023/01/23 05:30:41;;;;;;;28.07;16.23;;;3.60;99.90;;;;;;5035854;28;20469;-79
2023/01/23 05:33:07;;;;;;;32.33;16.57;;;3.80;99.90;;;;;;5033511;28;20048;-79
2023/01/23 05:35:33;;;;;;;32.47;17.07;;;3.70;99.90;;;;;;5032568;28;20112;-79
2023/01/23 05:37:59;;;;;;;32.67;17.60;;;3.70;99.90;;;;;;5016003;28;20040;-78
2023/01/23 05:40:25;;;;;;;35.63;18.27;;;3.60;99.90;;;;;;5033080;28;20030;-79
2023/01/23 05:42:50;;;;;;;30.67;16.57;;;3.70;99.90;;;;;;5032168;28;20090;-79
2023/01/23 05:45:17;;;;;;;32.43;17.87;;;3.70;99.90;;;;;;5015956;28;20088;-78
2023/01/23 05:47:43;;;;;;;35.30;18.57;;;3.70;99.90;;;;;;5045169;28;20029;-79
2023/01/23 05:50:16;;;;;;;32.70;17.37;;;3.70;99.90;;;;;;5053698;28;20032;-79
2023/01/23 05:52:42;;;;;;;25.98;13.70;;;3.70;99.90;;;;;;5052582;28;20025;-79
2023/01/23 05:55:07;;;;;;;33.60;17.93;;;3.70;99.90;;;;;;5032221;28;20032;-79
2023/01/23 05:57:34;;;;;;;32.80;17.77;;;3.70;99.90;;;;;;5032264;28;20028;-78
2023/01/23 05:59:59;;;;;;;35.03;19.43;;;3.60;99.90;;;;;;5032249;28;20052;-79
2023/01/23 06:02:25;;;;;;;32.70;16.57;;;3.60;99.90;;;;;;5031888;28;20045;-79
2023/01/23 06:04:50;;;;;;;31.43;17.73;;;3.60;99.90;;;;;;5033474;28;20108;-80
2023/01/23 06:07:18;;;;;;;32.57;18.03;;;3.60;99.90;;;;;;5016085;28;20428;-79
2023/01/23 06:09:44;;;;;;;34.07;18.60;;;3.70;99.90;;;;;;5033714;28;20031;-79
2023/01/23 06:12:10;;;;;;;31.80;17.73;;;3.60;99.90;;;;;;5032184;28;20124;-80
2023/01/23 06:14:35;;;;;;;32.50;18.83;;;3.60;99.90;;;;;;5019460;28;20037;-79
2023/01/23 06:17:01;;;;;;;31.20;17.87;;;3.60;99.90;;;;;;5032036;28;20044;-80
2023/01/23 06:19:27;;;;;;;32.80;18.10;;;3.60;99.90;;;;;;5015268;28;20143;-80
2023/01/23 06:21:53;;;;;;;33.07;17.73;;;3.60;99.90;;;;;;5031447;28;20033;-79
2023/01/23 06:24:18;;;;;;;31.57;17.40;;;3.70;99.90;;;;;;5031858;28;20057;-79
2023/01/23 06:26:44;;;;;;;31.03;17.40;;;3.60;99.90;;;;;;5032679;28;20025;-80
2023/01/23 06:29:10;;;;;;;32.40;16.87;;;3.60;99.90;;;;;;5032948;28;20552;-79
2023/01/23 06:31:35;;;;;;;34.77;17.07;;;3.60;99.90;;;;;;5031766;28;20041;-79
2023/01/23 06:34:01;;;;;;;30.10;16.50;;;3.60;99.90;;;;;;5031771;28;20025;-79
2023/01/23 06:36:27;;;;;;;32.43;18.00;;;3.60;99.90;;;;;;5031320;28;20167;-80
2023/01/23 06:38:53;;;;;;;30.47;17.20;;;3.60;99.90;;;;;;5038992;28;20029;-79
2023/01/23 06:41:19;;;;;;;34.67;19.17;;;3.70;99.90;;;;;;5051551;28;20086;-79
2023/01/23 06:43:44;;;;;;;34.20;18.10;;;3.70;99.90;;;;;;5052325;28;20049;-79
2023/01/23 06:46:11;;;;;;;33.17;19.03;;;3.70;99.90;;;;;;5028001;28;20151;-79
2023/01/23 06:48:37;;;;;;;31.93;18.23;;;3.70;99.90;;;;;;5031636;28;20031;-79
2023/01/23 06:51:04;;;;;;;28.30;18.07;;;3.70;99.90;;;;;;5048108;28;20030;-79
2023/01/23 06:53:30;;;;;;;32.67;18.83;;;3.70;99.90;;;;;;5035209;28;20448;-79
2023/01/23 06:56:04;;;;;;;34.60;19.97;;;3.70;99.90;;;;;;5054955;28;20021;-82
2023/01/23 06:58:30;;;;;;;31.35;19.17;;;3.70;99.90;;;;;;5049398;28;20033;-80
2023/01/23 07:00:56;;;;;;;34.00;19.40;;;3.80;99.90;;;;;;5043786;28;20445;-79
2023/01/23 07:03:22;;;;;;;35.23;20.33;;;3.80;99.90;;;;;;5031652;28;20071;-80
2023/01/23 07:05:48;;;;;;;32.40;19.33;;;3.60;99.90;;;;;;5030834;28;20029;-80
2023/01/23 07:08:14;;;;;;;33.03;18.80;;;3.70;99.90;;;;;;5015783;28;20045;-80
2023/01/23 07:10:39;;;;;;;34.63;18.20;;;3.80;99.90;;;;;;5032707;28;20025;-80
2023/01/23 07:13:10;;;;;;;37.17;19.00;;;3.80;99.90;;;;;;5034914;28;20033;-81
2023/01/23 07:15:36;;;;;;;30.40;18.03;;;3.80;99.90;;;;;;5053712;28;20021;-79
2023/01/23 07:18:02;;;;;;;35.50;19.87;;;3.80;99.90;;;;;;5055023;28;20462;-79
2023/01/23 07:20:28;;;;;;;33.97;17.93;;;3.80;99.90;;;;;;5054925;28;20040;-80
2023/01/23 07:22:55;;;;;;;37.30;19.73;;;3.70;99.90;;;;;;5036470;28;20132;-80
2023/01/23 07:25:21;;;;;;;34.67;18.20;;;3.70;99.90;;;;;;5038980;28;20021;-79
2023/01/23 07:27:47;;;;;;;29.00;17.70;;;3.80;99.90;;;;;;5044682;28;20043;-79
2023/01/23 07:30:13;;;;;;;33.20;18.70;;;3.80;99.90;;;;;;5030109;28;20025;-79
2023/01/23 07:32:38;;;;;;;32.63;18.70;;;3.80;99.90;;;;;;5048805;28;20025;-81
2023/01/23 07:35:05;;;;;;;39.23;20.57;;;3.90;99.90;;;;;;5022567;28;20032;-82
2023/01/23 07:37:31;;;;;;;34.83;19.87;;;3.80;99.90;;;;;;5038207;28;20481;-80
2023/01/23 07:39:56;;;;;;;36.77;19.40;;;3.90;99.90;;;;;;5034659;28;20130;-79
2023/01/23 07:42:22;;;;;;;32.50;17.97;;;3.80;99.90;;;;;;5041437;28;20485;-78
2023/01/23 07:44:48;;;;;;;33.87;19.73;;;3.80;99.90;;;;;;5053737;28;20033;-79
2023/01/23 07:47:13;;;;;;;33.70;19.03;;;3.80;99.90;;;;;;5039154;28;20401;-79
2023/01/23 07:49:39;;;;;;;31.20;19.87;;;4.00;99.90;;;;;;5042552;28;20037;-79
2023/01/23 07:52:05;;;;;;;31.00;18.47;;;3.90;99.90;;;;;;5045855;28;20029;-79
2023/01/23 07:54:31;;;;;;;32.23;17.57;;;3.80;99.90;;;;;;5033939;28;20022;-79
2023/01/23 07:56:56;;;;;;;28.17;16.40;;;3.90;99.90;;;;;;5036264;28;20465;-78
2023/01/23 07:59:22;;;;;;;27.67;17.00;;;3.90;99.90;;;;;;5053406;28;20052;-77
2023/01/23 08:01:50;;;;;;;30.13;17.60;;;3.90;99.90;;;;;;5036322;28;20396;-79
2023/01/23 08:04:15;;;;;;;28.70;17.57;;;3.90;99.90;;;;;;5036639;28;20419;-78
2023/01/23 08:06:41;;;;;;;28.97;16.70;;;4.00;99.90;;;;;;5051856;28;20037;-78
2023/01/23 08:09:07;;;;;;;31.50;18.33;;;4.00;99.90;;;;;;5052204;28;20025;-81
2023/01/23 08:11:32;;;;;;;30.27;18.13;;;4.00;99.90;;;;;;5052492;28;20036;-80
2023/01/23 08:13:58;;;;;;;29.30;16.73;;;4.00;99.90;;;;;;5024588;28;20048;-80
2023/01/23 08:16:24;;;;;;;28.33;17.03;;;4.10;99.90;;;;;;5027014;28;20044;-80
2023/01/23 08:18:49;;;;;;;25.80;16.87;;;4.10;99.90;;;;;;5054164;28;20025;-81
2023/01/23 08:21:15;;;;;;;27.83;16.73;;;4.10;99.90;;;;;;5042705;28;20034;-80
2023/01/23 08:23:41;;;;;;;27.17;16.70;;;4.20;99.90;;;;;;5023856;28;20449;-80
2023/01/23 08:26:08;;;;;;;29.57;16.93;;;4.20;99.90;;;;;;5027575;28;20033;-80
2023/01/23 08:28:34;;;;;;;28.20;16.87;;;4.20;99.90;;;;;;5036508;28;20020;-79
2023/01/23 08:31:06;;;;;;;30.20;16.77;;;4.20;99.90;;;;;;5043587;28;20075;-80
2023/01/23 08:33:33;;;;;;;25.53;15.20;;;4.20;99.90;;;;;;5044733;28;20029;-80
2023/01/23 08:35:59;;;;;;;32.53;16.90;;;4.20;99.90;;;;;;5046952;28;20029;-77
2023/01/23 08:38:25;;;;;;;30.17;17.10;;;4.20;99.90;;;;;;5024918;28;20457;-77
2023/01/23 08:40:52;;;;;;;28.73;16.60;;;4.20;99.90;;;;;;5043251;28;20537;-78
2023/01/23 08:43:19;;;;;;;27.17;16.40;;;4.20;99.90;;;;;;5043811;28;20084;-77
2023/01/23 08:45:49;;;;;;;27.60;15.37;;;4.30;99.90;;;;;;5027467;28;20120;-77
2023/01/23 08:48:16;;;;;;;26.40;16.33;;;4.30;99.90;;;;;;5052155;28;20032;-77
2023/01/23 08:50:41;;;;;;;26.57;15.50;;;4.30;99.90;;;;;;5053754;28;20032;-77
2023/01/23 08:53:07;;;;;;;27.07;16.50;;;4.30;99.90;;;;;;5036258;28;20025;-80
2023/01/23 08:55:34;;;;;;;28.73;16.57;;;4.40;99.90;;;;;;5052720;28;20021;-78
2023/01/23 08:58:01;;;;;;;26.47;15.13;;;4.40;99.90;;;;;;5029587;28;20032;-79
2023/01/23 09:00:27;;;;;;;26.93;16.70;;;4.50;99.90;;;;;;5033859;28;20484;-77
2023/01/23 09:02:52;;;;;;;25.53;16.03;;;4.50;99.90;;;;;;5035855;28;20041;-75
2023/01/23 09:05:18;;;;;;;30.80;17.47;;;4.50;99.90;;;;;;5035038;28;20477;-77
2023/01/23 09:07:44;;;;;;;24.20;15.37;;;4.50;99.90;;;;;;5035135;28;20039;-77
2023/01/23 09:10:11;;;;;;;30.23;17.10;;;4.70;99.90;;;;;;5018778;28;20067;-76
2023/01/23 09:12:37;;;;;;;30.80;16.67;;;4.60;99.90;;;;;;5050656;28;20029;-76
2023/01/23 09:15:03;;;;;;;31.30;17.73;;;4.60;99.90;;;;;;5018750;28;20059;-76
2023/01/23 09:17:29;;;;;;;29.13;15.40;;;4.60;99.90;;;;;;5052272;28;20075;-76
2023/01/23 09:19:54;;;;;;;24.30;15.60;;;4.60;99.90;;;;;;5050476;28;20044;-76
2023/01/23 09:22:20;;;;;;;26.20;15.40;;;4.60;99.90;;;;;;5035158;28;20048;-75
2023/01/23 09:24:45;;;;;;;26.23;16.13;;;4.60;99.90;;;;;;5053017;28;20037;-76
2023/01/23 09:27:11;;;;;;;29.23;16.97;;;4.60;99.90;;;;;;5051039;28;20029;-76
2023/01/23 09:29:36;;;;;;;31.87;17.63;;;4.80;99.90;;;;;;5023056;28;20159;-76
2023/01/23 09:32:02;;;;;;;28.43;17.43;;;4.70;99.90;;;;;;5024763;28;20384;-75
2023/01/23 09:34:29;;;;;;;29.13;16.43;;;4.80;99.90;;;;;;5025987;28;20491;-77
2023/01/23 09:36:55;;;;;;;31.53;16.83;;;4.80;99.90;;;;;;5040163;28;20029;-76
2023/01/23 09:39:20;;;;;;;28.83;16.40;;;4.80;99.90;;;;;;5040633;28;20103;-76
2023/01/23 09:41:47;;;;;;;30.50;17.80;;;4.80;99.90;;;;;;5025444;28;20171;-76
2023/01/23 09:44:39;;;;;;;33.37;17.17;;;4.80;99.90;;;;;;5041975;28;20033;-75
2023/01/23 09:47:10;;;;;;;28.67;15.97;;;4.90;99.90;;;;;;5042155;28;20152;-75
2023/01/23 09:49:57;;;;;;;27.43;15.83;;;4.90;99.90;;;;;;5038795;28;20048;-75
2023/01/23 09:52:33;;;;;;;30.13;17.07;;;4.90;99.90;;;;;;5041750;28;20384;-75
2023/01/23 09:55:22;;;;;;;27.90;15.80;;;4.90;99.90;;;;;;5041340;28;20043;-76
2023/01/23 09:57:56;;;;;;;26.27;15.53;;;5.00;99.90;;;;;;5035519;28;20022;-75
2023/01/23 10:00:32;;;;;;;25.73;16.00;;;5.00;99.90;;;;;;5031332;28;20047;-75
2023/01/23 10:03:10;;;;;;;28.67;15.83;;;5.00;99.90;;;;;;5039662;28;20036;-75
2023/01/23 10:05:42;;;;;;;29.40;17.40;;;5.00;99.90;;;;;;5041647;28;20024;-75
2023/01/23 10:08:39;;;;;;;27.43;16.33;;;5.00;99.90;;;;;;5045102;28;20047;-75
2023/01/23 10:11:14;;;;;;;26.50;16.13;;;5.00;99.90;;;;;;5045932;28;20086;-75
2023/01/23 10:14:19;;;;;;;25.37;14.73;;;5.10;99.90;;;;;;5045272;28;20473;-76
2023/01/23 10:17:01;;;;;;;;;;;5.10;99.90;;;;;;5031502;28;20045;-75
2023/01/23 10:20:08;;;;;;;25.47;14.47;;;5.10;99.90;;;;;;5038379;28;19905;-75
2023/01/23 10:22:37;;;;;;;24.77;14.50;;;5.10;99.90;;;;;;5040269;28;20493;-76
2023/01/23 10:25:21;;;;;;;26.17;14.97;;;5.20;99.90;;;;;;5046171;28;20057;-76
2023/01/23 10:27:50;;;;;;;27.73;15.10;;;5.20;99.90;;;;;;5051003;28;20096;-76
2023/01/23 10:30:21;;;;;;;24.93;14.20;;;5.30;99.90;;;;;;5050786;28;20274;-76
2023/01/23 10:33:14;;;;;;;26.47;15.40;;;5.30;99.90;;;;;;5051017;28;20116;-75
2023/01/23 10:35:53;;;;;;;27.30;15.13;;;5.40;99.90;;;;;;5045790;28;20040;-75
2023/01/23 10:38:26;;;;;;;22.90;14.57;;;5.50;99.90;;;;;;5051772;28;20025;-75
2023/01/23 10:43:36;;;;;;;22.93;14.23;;;5.70;99.90;;;;;;5051246;28;20133;-76
2023/01/23 10:46:11;;;;;;;28.07;15.33;;;5.60;99.90;;;;;;5050429;28;20143;-75
2023/01/23 10:48:51;;;;;;;28.40;15.70;;;5.70;99.90;;;;;;5044889;28;20457;-76
2023/01/23 10:51:37;;;;;;;26.90;15.53;;;5.80;99.90;;;;;;5038051;28;20025;-76
2023/01/23 10:54:24;;;;;;;27.13;15.23;;;5.80;99.90;;;;;;5041844;28;20026;-76
2023/01/23 10:57:03;;;;;;;26.10;14.30;;;5.80;99.90;;;;;;5034478;28;20052;-76
2023/01/23 10:59:50;;;;;;;25.73;14.87;;;5.90;99.90;;;;;;5036169;28;20021;-76
2023/01/23 11:02:28;;;;;;;26.70;15.03;;;6.00;99.90;;;;;;5055922;28;20079;-76
2023/01/23 11:04:54;;;;;;;29.77;17.50;;;6.00;99.90;;;;;;5054373;28;20060;-76
2023/01/23 11:07:25;;;;;;;26.33;17.00;;;6.00;99.90;;;;;;5054680;28;20060;-77
2023/01/23 11:09:59;;;;;;;28.87;16.83;;;6.00;99.90;;;;;;5054275;28;20029;-76
2023/01/23 11:12:25;;;;;;;27.38;16.40;;;6.10;99.90;;;;;;5050049;28;20026;-75
2023/01/23 11:15:20;;;;;;;26.83;16.23;;;6.10;99.90;;;;;;5045822;28;20071;-75
2023/01/23 11:17:47;;;;;;;28.20;16.93;;;6.10;99.90;;;;;;5050655;28;20036;-75
2023/01/23 11:20:32;;;;;;;27.90;16.30;;;6.20;99.90;;;;;;5054238;28;20032;-75
2023/01/23 11:23:16;;;;;;;26.17;15.57;;;6.20;99.90;;;;;;5054718;28;20047;-75
2023/01/23 11:25:42;;;;;;;;;;;6.20;99.90;;;;;;5035039;28;20478;-76
2023/01/23 11:28:19;;;;;;;26.30;16.40;;;6.30;99.90;;;;;;5034884;28;19909;-75
2023/01/23 11:31:17;;;;;;;27.47;15.37;;;6.30;99.90;;;;;;5034404;28;20431;-75
2023/01/23 11:33:52;;;;;;;27.10;16.93;;;6.30;99.90;;;;;;5034675;28;20077;-76
2023/01/23 11:36:17;;;;;;;27.97;17.00;;;6.40;99.90;;;;;;5035183;28;20030;-76
2023/01/23 11:39:15;;;;;;;30.70;17.07;;;6.40;99.90;;;;;;5034770;28;20036;-76
2023/01/23 11:41:43;;;;;;;29.90;17.47;;;6.40;99.90;;;;;;5064807;28;20017;-76
2023/01/23 11:44:17;;;;;;;26.00;16.80;;;6.30;99.90;;;;;;5051249;28;20078;-76
2023/01/23 11:47:07;;;;;;;28.92;16.67;;;6.30;99.90;;;;;;5049140;28;20492;-77
2023/01/23 11:50:10;;;;;;;28.93;16.47;;;6.30;99.90;;;;;;5047933;28;20090;-77
2023/01/23 11:52:44;;;;;;;23.60;15.57;;;6.30;99.90;;;;;;5042228;28;20538;-77
2023/01/23 11:55:13;;;;;;;30.20;18.33;;;6.30;99.90;;;;;;5053424;28;20035;-77
2023/01/23 11:57:56;;;;;;;28.10;17.13;;;6.30;99.90;;;;;;5054015;28;20032;-75
2023/01/23 12:00:41;;;;;;;24.33;16.20;;;6.20;99.90;;;;;;5052705;28;20013;-77
2023/01/23 12:03:34;;;;;;;26.73;17.03;;;6.30;99.90;;;;;;5054123;28;20116;-75
2023/01/23 12:06:27;;;;;;;27.70;15.73;;;6.20;99.90;;;;;;5041309;28;20492;-78
2023/01/23 12:08:53;;;;;;;24.83;16.07;;;6.20;99.90;;;;;;5053035;28;20358;-77
2023/01/23 12:11:21;;;;;;;26.83;15.83;;;6.20;99.90;;;;;;5054567;28;20021;-77
2023/01/23 12:14:06;;;;;;;24.93;16.10;;;6.20;99.90;;;;;;5055339;28;20107;-77
2023/01/23 12:16:50;;;;;;;26.30;15.30;;;6.30;99.90;;;;;;5053961;28;20025;-77
2023/01/23 12:19:18;;;;;;;24.73;15.82;;;6.30;99.90;;;;;;5053043;28;20021;-77
2023/01/23 12:21:44;;;;;;;25.90;15.20;;;6.30;99.90;;;;;;5053314;28;20065;-77
2023/01/23 12:24:41;;;;;;;22.93;14.30;;;6.30;99.90;;;;;;5054268;28;20061;-77
2023/01/23 12:27:43;;;;;;;30.40;16.67;;;6.30;99.90;;;;;;5053481;28;20452;-75
2023/01/23 12:30:24;;;;;;;24.83;15.80;;;6.40;99.90;;;;;;5053353;28;20028;-76
2023/01/23 12:33:21;;;;;;;25.70;15.20;;;6.40;99.90;;;;;;5054334;28;20481;-76
2023/01/23 12:36:05;;;;;;;26.63;15.87;;;6.40;99.90;;;;;;5051190;28;20142;-76
2023/01/23 12:38:55;;;;;;;22.63;13.85;;;6.50;99.90;;;;;;5039206;28;20028;-76
2023/01/23 12:41:35;;;;;;;22.00;14.87;;;6.50;99.90;;;;;;5044381;28;20104;-76
2023/01/23 12:44:24;;;;;;;23.97;15.10;;;6.50;99.90;;;;;;5046844;28;20411;-76
2023/01/23 12:47:13;;;;;;;26.70;15.70;;;6.50;99.90;;;;;;5032874;28;20053;-75
2023/01/23 12:49:41;;;;;;;24.63;15.10;;;6.50;99.90;;;;;;5034273;28;20080;-75
2023/01/23 12:52:14;;;;;;;22.33;14.40;;;6.50;99.90;;;;;;5048704;28;20029;-75
2023/01/23 12:54:47;;;;;;;28.40;15.80;;;6.50;99.90;;;;;;5053194;28;20115;-76
2023/01/23 12:57:38;;;;;;;22.43;14.57;;;6.50;99.80;;;;;;5052329;28;20040;-76
2023/01/23 13:00:07;;;;;;;24.63;15.00;;;6.50;99.70;;;;;;5043099;28;20071;-76
2023/01/23 13:02:44;;;;;;;23.50;14.90;;;6.50;99.70;;;;;;5032696;28;20041;-76